Ayamonte, Spain
Current Conditions -  °F | °C
As of 2:00 PM on Thursday 27 Nov 2014 (Local Time) from LPFR Reporting Station
Scattered Clouds Scattered Clouds  
Wind Chill: 61°   Ceiling: Unl
Heat Index: 61°   Visibility: 6mi
Dew Point: 52°   Wind: 12mph
Humidity: 72%   Direction: 240°WSW
Pressure: 29.38"   Gusts: NA
Location:  37.21°N, 7.41°W
Report Text: LPFR 271300Z 24010KT 9999 SCT025 16/11 Q0995
Loading
Personal Weather Stations






























Interactive Weather Map New forecast layout! Learn more

10-Day Weather Forecast

Advertisements
Track Severe Weather on mobile